createdAt,value
2023-10-07T00:01:27.381Z,16.23
2023-10-07T00:03:55.388Z,15.80
2023-10-07T00:06:28.126Z,16.77
2023-10-07T00:11:23.299Z,12.95
2023-10-07T00:13:55.698Z,17.42
2023-10-07T00:18:52.898Z,18.25
2023-10-07T00:21:28.803Z,17.20
2023-10-07T00:23:58.680Z,17.15
2023-10-07T00:26:28.732Z,13.55
2023-10-07T00:29:02.546Z,17.33
2023-10-07T00:31:34.449Z,17.95
2023-10-07T00:34:28.563Z,13.10
2023-10-07T00:36:59.505Z,16.15
2023-10-07T00:39:32.601Z,20.63
2023-10-07T00:42:00.327Z,19.33
2023-10-07T00:44:33.807Z,13.15
2023-10-07T00:47:22.532Z,16.92
2023-10-07T00:49:50.391Z,17.25
2023-10-07T00:52:30.683Z,15.98
2023-10-07T00:55:05.348Z,17.30
2023-10-07T00:57:36.105Z,16.88
2023-10-07T01:00:30.109Z,14.90
2023-10-07T01:03:16.101Z,15.88
2023-10-07T01:05:59.558Z,15.93
2023-10-07T01:08:36.606Z,14.80
2023-10-07T01:11:16.113Z,23.23
2023-10-07T01:13:52.902Z,14.77
2023-10-07T01:16:41.693Z,17.70
2023-10-07T01:19:18.875Z,14.75
2023-10-07T01:21:56.297Z,11.85
2023-10-07T01:24:43.899Z,19.05
2023-10-07T01:27:27.326Z,14.30
2023-10-07T01:30:01.529Z,15.88
2023-10-07T01:32:35.132Z,16.65
2023-10-07T01:35:12.586Z,16.95
2023-10-07T01:37:52.587Z,16.35
2023-10-07T01:40:19.947Z,13.00
2023-10-07T01:42:47.315Z,18.13
2023-10-07T01:45:23.779Z,14.65
2023-10-07T01:47:55.884Z,13.65
2023-10-07T01:50:26.235Z,16.50
2023-10-07T01:52:57.083Z,11.45
2023-10-07T01:55:29.155Z,16.23
2023-10-07T01:57:57.089Z,15.50
2023-10-07T02:00:41.525Z,15.23
2023-10-07T02:03:10.992Z,20.63
2023-10-07T02:05:58.418Z,15.25
2023-10-07T02:08:26.807Z,16.67
2023-10-07T02:11:00.357Z,16.70
2023-10-07T02:13:31.456Z,18.15
2023-10-07T02:15:59.036Z,16.67
2023-10-07T02:18:29.614Z,17.40
2023-10-07T02:21:08.171Z,16.35
2023-10-07T02:23:41.483Z,11.63
2023-10-07T02:26:16.056Z,14.70
2023-10-07T02:28:45.491Z,12.07
2023-10-07T02:31:16.691Z,17.52
2023-10-07T02:33:44.432Z,14.65
2023-10-07T02:36:29.819Z,14.05
2023-10-07T02:39:20.018Z,13.52
2023-10-07T02:41:48.113Z,18.63
2023-10-07T02:44:29.103Z,19.33
2023-10-07T02:46:57.935Z,15.00
2023-10-07T02:49:26.905Z,12.02
2023-10-07T02:51:57.308Z,11.43
2023-10-07T02:54:33.448Z,13.68
2023-10-07T02:57:22.771Z,14.23
2023-10-07T02:59:52.772Z,12.95
2023-10-07T03:02:27.685Z,16.33
2023-10-07T03:05:11.351Z,16.92
2023-10-07T03:07:42.925Z,16.45
2023-10-07T03:10:18.544Z,17.83
2023-10-07T03:12:57.857Z,18.35
2023-10-07T03:15:47.009Z,15.32
2023-10-07T03:18:23.119Z,15.90
2023-10-07T03:21:02.073Z,17.33
2023-10-07T03:23:37.304Z,14.45
2023-10-07T03:26:04.673Z,14.25
2023-10-07T03:28:37.625Z,26.25
2023-10-07T03:31:14.432Z,15.95
2023-10-07T03:33:45.984Z,14.60
2023-10-07T03:36:23.958Z,18.77
2023-10-07T03:39:11.485Z,14.00
2023-10-07T03:41:49.975Z,14.38
2023-10-07T03:44:23.760Z,16.65
2023-10-07T03:46:58.494Z,20.70
2023-10-07T03:49:34.794Z,17.80
2023-10-07T03:52:09.455Z,20.15
2023-10-07T03:54:37.253Z,13.20
2023-10-07T03:57:04.489Z,17.05
2023-10-07T03:59:40.981Z,16.92
2023-10-07T04:02:41.066Z,19.40
2023-10-07T04:05:11.851Z,18.77
2023-10-07T04:07:40.735Z,19.88
2023-10-07T04:10:21.781Z,19.75
2023-10-07T04:12:50.577Z,21.58
2023-10-07T04:15:29.332Z,17.90
2023-10-07T04:17:58.780Z,18.13
2023-10-07T04:20:43.565Z,18.98
2023-10-07T04:23:10.827Z,19.65
2023-10-07T04:25:44.981Z,21.98
2023-10-07T04:28:14.982Z,19.83
2023-10-07T04:30:48.309Z,20.80
2023-10-07T04:33:19.018Z,20.58
2023-10-07T04:35:51.633Z,22.95
2023-10-07T04:38:42.072Z,22.27
2023-10-07T04:41:24.356Z,24.20
2023-10-07T04:44:00.521Z,21.47
2023-10-07T04:46:31.019Z,25.98
2023-10-07T04:49:13.952Z,22.33
2023-10-07T04:51:44.502Z,20.88
2023-10-07T04:54:13.513Z,22.30
2023-10-07T04:56:41.129Z,25.45
2023-10-07T04:59:10.661Z,23.63
2023-10-07T05:01:43.058Z,27.27
2023-10-07T05:04:11.818Z,25.70
2023-10-07T05:06:39.808Z,27.15
2023-10-07T05:09:10.272Z,25.45
2023-10-07T05:11:42.419Z,24.77
2023-10-07T05:14:11.888Z,24.67
2023-10-07T05:16:39.703Z,25.13
2023-10-07T05:19:10.743Z,26.38
2023-10-07T05:21:45.440Z,21.50
2023-10-07T05:24:12.980Z,28.65
2023-10-07T05:26:43.705Z,24.88
2023-10-07T05:29:14.231Z,27.45
2023-10-07T05:31:43.904Z,26.48
2023-10-07T05:34:11.841Z,26.90
2023-10-07T05:36:40.129Z,33.10
2023-10-07T05:39:09.311Z,28.65
2023-10-07T05:41:40.575Z,28.02
2023-10-07T05:44:10.928Z,24.90
2023-10-07T05:46:38.431Z,24.80
2023-10-07T05:49:07.456Z,25.50
2023-10-07T05:51:37.388Z,31.33
2023-10-07T05:54:06.393Z,31.23
2023-10-07T05:56:33.673Z,29.45
2023-10-07T05:59:02.953Z,29.70
2023-10-07T06:01:34.900Z,27.40
2023-10-07T06:04:02.466Z,29.23
2023-10-07T06:06:31.318Z,30.75
2023-10-07T06:09:01.586Z,31.67
2023-10-07T06:11:33.258Z,28.98
2023-10-07T06:14:00.558Z,28.27
2023-10-07T06:16:30.659Z,31.27
2023-10-07T06:18:59.715Z,32.80
2023-10-07T06:21:30.411Z,30.17
2023-10-07T06:24:01.194Z,27.73
2023-10-07T06:26:31.416Z,31.48
2023-10-07T06:29:07.049Z,32.15
2023-10-07T06:31:34.860Z,30.50
2023-10-07T06:34:04.762Z,35.03
2023-10-07T06:36:33.345Z,33.83
2023-10-07T06:39:02.750Z,34.65
2023-10-07T06:41:31.034Z,31.75
2023-10-07T06:44:09.798Z,31.15
2023-10-07T06:46:43.784Z,31.00
2023-10-07T06:49:23.060Z,37.60
2023-10-07T06:51:55.101Z,29.20
2023-10-07T06:54:26.408Z,33.00
2023-10-07T06:56:56.501Z,37.45
2023-10-07T06:59:29.060Z,37.42
2023-10-07T07:02:06.487Z,38.00
2023-10-07T07:04:36.553Z,33.17
2023-10-07T07:07:17.272Z,33.95
2023-10-07T07:09:50.860Z,32.30
2023-10-07T07:12:22.863Z,35.60
2023-10-07T07:15:06.727Z,32.33
2023-10-07T07:17:37.524Z,33.65
2023-10-07T07:20:12.607Z,29.50
2023-10-07T07:22:47.460Z,30.20
2023-10-07T07:25:28.932Z,29.90
2023-10-07T07:27:59.376Z,36.53
2023-10-07T07:30:33.492Z,34.10
2023-10-07T07:33:10.155Z,36.22
2023-10-07T07:35:45.179Z,37.45
2023-10-07T07:38:33.517Z,32.22
2023-10-07T07:41:07.344Z,36.47
2023-10-07T07:43:40.095Z,37.65
2023-10-07T07:46:18.940Z,32.58
2023-10-07T07:48:46.615Z,37.95
2023-10-07T07:51:21.937Z,31.55
2023-10-07T07:53:49.403Z,37.85
2023-10-07T07:56:17.793Z,40.45
2023-10-07T07:58:49.986Z,42.25
2023-10-07T08:01:21.714Z,37.80
2023-10-07T08:03:49.170Z,38.13
2023-10-07T08:06:26.595Z,35.97
2023-10-07T08:08:56.981Z,39.17
2023-10-07T08:11:24.149Z,42.65
2023-10-07T08:13:51.505Z,34.83
2023-10-07T08:16:20.490Z,41.63
2023-10-07T08:18:54.931Z,38.40
2023-10-07T08:21:29.698Z,41.30
2023-10-07T08:24:02.513Z,40.22
2023-10-07T08:26:35.578Z,44.72
2023-10-07T08:29:03.095Z,40.47
2023-10-07T08:31:40.548Z,41.10
2023-10-07T08:34:12.012Z,43.70
2023-10-07T08:36:48.216Z,42.78
2023-10-07T08:39:28.192Z,43.08
2023-10-07T08:41:59.439Z,52.35
2023-10-07T08:44:32.829Z,43.13
2023-10-07T08:47:06.594Z,45.20
2023-10-07T08:49:37.447Z,42.03
2023-10-07T08:52:10.700Z,47.70
2023-10-07T08:54:45.579Z,46.25
2023-10-07T08:57:20.643Z,45.83
2023-10-07T08:59:53.286Z,44.92
2023-10-07T09:02:28.502Z,44.03
2023-10-07T09:05:00.554Z,46.13
2023-10-07T09:07:32.353Z,45.67
2023-10-07T09:10:16.022Z,49.35
2023-10-07T09:12:49.978Z,45.92
2023-10-07T09:15:22.420Z,51.95
2023-10-07T09:17:49.805Z,44.40
2023-10-07T09:20:30.249Z,48.67
2023-10-07T09:23:08.426Z,44.20
2023-10-07T09:25:35.813Z,46.50
2023-10-07T09:28:08.030Z,54.13
2023-10-07T09:30:44.654Z,48.05
2023-10-07T09:33:20.224Z,43.95
2023-10-07T09:36:01.235Z,42.35
2023-10-07T09:38:34.827Z,41.28
2023-10-07T09:41:14.600Z,47.35
2023-10-07T09:43:48.714Z,39.28
2023-10-07T09:46:37.293Z,36.67
2023-10-07T09:49:07.424Z,45.97
2023-10-07T09:51:45.901Z,50.38
2023-10-07T09:54:50.441Z,43.13
2023-10-07T09:57:43.628Z,39.80
2023-10-07T10:03:37.382Z,46.63
2023-10-07T10:06:37.596Z,47.88
2023-10-07T10:09:14.857Z,41.25
2023-10-07T10:12:16.938Z,42.00
2023-10-07T10:15:03.046Z,47.88
2023-10-07T10:17:41.527Z,50.17
2023-10-07T10:20:15.853Z,49.70
2023-10-07T10:23:00.584Z,46.53
2023-10-07T10:25:37.861Z,50.45
2023-10-07T10:28:08.718Z,46.70
2023-10-07T10:30:47.373Z,48.60
2023-10-07T10:33:22.295Z,48.03
2023-10-07T10:35:53.020Z,49.95
2023-10-07T10:38:20.647Z,52.05
2023-10-07T10:40:48.125Z,46.83
2023-10-07T10:43:26.825Z,50.10
2023-10-07T10:46:08.738Z,47.78
2023-10-07T10:48:38.268Z,48.75
2023-10-07T10:51:06.777Z,55.45
2023-10-07T10:53:37.669Z,54.47
2023-10-07T10:56:05.004Z,52.80
2023-10-07T10:58:32.240Z,52.17
2023-10-07T11:00:59.982Z,52.03
2023-10-07T11:03:28.973Z,50.88
2023-10-07T11:05:58.224Z,55.17
2023-10-07T11:08:26.988Z,54.28
2023-10-07T11:10:58.495Z,58.25
2023-10-07T11:13:28.086Z,50.85
2023-10-07T11:16:10.813Z,51.60
2023-10-07T11:18:46.099Z,45.08
2023-10-07T11:21:19.511Z,44.67
2023-10-07T11:23:53.705Z,42.72
2023-10-07T11:26:27.713Z,40.03
2023-10-07T11:28:58.164Z,43.75
2023-10-07T11:31:31.553Z,38.35
2023-10-07T11:34:00.346Z,40.08
2023-10-07T11:36:27.742Z,35.83
2023-10-07T11:38:57.265Z,36.22
2023-10-07T11:41:24.548Z,44.20
2023-10-07T11:43:53.516Z,35.40
2023-10-07T11:46:21.269Z,31.50
2023-10-07T11:48:48.520Z,37.38
2023-10-07T11:51:16.586Z,34.53
2023-10-07T11:53:43.791Z,36.03
2023-10-07T11:56:13.454Z,32.55
2023-10-07T11:58:42.972Z,32.10
2023-10-07T12:01:10.199Z,32.00
2023-10-07T12:03:43.450Z,33.83
2023-10-07T12:06:10.746Z,35.78
2023-10-07T12:08:37.938Z,31.80
2023-10-07T12:11:06.594Z,28.27
2023-10-07T12:13:33.967Z,34.55
2023-10-07T12:16:05.933Z,29.50
2023-10-07T12:18:33.833Z,28.70
2023-10-07T12:21:05.185Z,32.03
2023-10-07T12:23:34.495Z,27.33
2023-10-07T12:26:02.729Z,25.10
2023-10-07T12:28:31.604Z,24.52
2023-10-07T12:30:59.565Z,23.90
2023-10-07T12:33:36.869Z,22.58
2023-10-07T12:36:16.051Z,26.88
2023-10-07T12:38:43.880Z,20.70
2023-10-07T12:41:14.240Z,23.60
2023-10-07T12:43:41.838Z,25.77
2023-10-07T12:46:11.059Z,24.65
2023-10-07T12:48:41.430Z,26.40
2023-10-07T12:51:09.785Z,21.77
2023-10-07T12:53:37.298Z,26.35
2023-10-07T12:56:15.607Z,25.63
2023-10-07T12:58:43.663Z,27.65
2023-10-07T13:01:13.329Z,25.02
2023-10-07T13:03:42.253Z,25.95
2023-10-07T13:06:11.491Z,28.98
2023-10-07T13:08:39.960Z,24.08
2023-10-07T13:11:21.922Z,23.27
2023-10-07T13:13:49.229Z,26.70
2023-10-07T13:16:18.373Z,25.50
2023-10-07T13:18:45.791Z,25.10
2023-10-07T13:21:19.923Z,28.98
2023-10-07T13:23:48.031Z,21.95
2023-10-07T13:26:16.463Z,23.98
2023-10-07T13:28:49.269Z,27.90
2023-10-07T13:33:47.653Z,23.30
2023-10-07T13:36:14.946Z,25.08
2023-10-07T13:38:42.266Z,26.00
2023-10-07T13:41:09.799Z,21.20
2023-10-07T13:43:37.097Z,19.73
2023-10-07T13:46:14.275Z,19.05
2023-10-07T13:48:44.193Z,27.30
2023-10-07T13:51:11.603Z,25.13
2023-10-07T13:53:52.275Z,23.20
2023-10-07T13:56:44.634Z,25.20
2023-10-07T13:59:12.443Z,23.40
2023-10-07T14:01:40.399Z,19.42
2023-10-07T14:04:07.814Z,26.50
2023-10-07T14:06:37.374Z,20.63
2023-10-07T14:09:05.622Z,25.42
2023-10-07T14:11:33.187Z,20.38
2023-10-07T14:14:01.275Z,23.48
2023-10-07T14:16:28.586Z,21.15
2023-10-07T14:18:55.770Z,16.38
2023-10-07T14:21:26.536Z,22.08
2023-10-07T14:23:53.819Z,20.13
2023-10-07T14:26:21.053Z,20.98
2023-10-07T14:28:48.350Z,16.77
2023-10-07T14:31:19.663Z,19.55
2023-10-07T14:33:47.472Z,21.75
2023-10-07T14:36:15.363Z,19.52
2023-10-07T14:38:46.550Z,16.65
2023-10-07T14:41:14.709Z,20.75
2023-10-07T14:43:42.344Z,15.98
2023-10-07T14:46:12.991Z,19.35
2023-10-07T14:48:48.655Z,17.75
2023-10-07T14:51:18.853Z,20.27
2023-10-07T14:53:47.911Z,15.88
2023-10-07T14:56:22.493Z,14.65
2023-10-07T14:58:50.988Z,24.38
2023-10-07T15:01:23.321Z,18.65
2023-10-07T15:03:52.155Z,17.25
2023-10-07T15:06:22.304Z,16.23
2023-10-07T15:08:51.134Z,18.38
2023-10-07T15:11:21.224Z,21.92
2023-10-07T15:13:52.570Z,19.13
2023-10-07T15:16:22.153Z,16.80
2023-10-07T15:18:50.908Z,21.45
2023-10-07T15:21:19.030Z,18.55
2023-10-07T15:23:46.946Z,18.88
2023-10-07T15:26:19.744Z,17.10
2023-10-07T15:31:25.128Z,18.80
2023-10-07T15:34:08.313Z,21.45
2023-10-07T15:36:39.521Z,19.30
2023-10-07T15:39:07.186Z,17.77
2023-10-07T15:41:34.629Z,19.00
2023-10-07T15:44:02.356Z,15.32
2023-10-07T15:46:32.507Z,17.52
2023-10-07T15:49:11.841Z,19.15
2023-10-07T15:51:40.523Z,18.63
2023-10-07T15:54:10.816Z,16.23
2023-10-07T15:56:42.407Z,16.10
2023-10-07T15:59:11.361Z,17.50
2023-10-07T16:01:46.179Z,15.52
2023-10-07T16:04:16.122Z,18.38
2023-10-07T16:06:47.334Z,12.98
2023-10-07T16:09:14.692Z,15.32
2023-10-07T16:11:44.374Z,17.17
2023-10-07T16:14:12.282Z,16.48
2023-10-07T16:16:39.686Z,17.25
2023-10-07T16:19:08.033Z,17.17
2023-10-07T16:21:41.892Z,17.40
2023-10-07T16:24:12.318Z,16.38
2023-10-07T16:26:44.283Z,16.05
2023-10-07T16:29:13.103Z,21.65
2023-10-07T16:31:40.728Z,18.40
2023-10-07T16:34:08.027Z,20.45
2023-10-07T16:36:35.430Z,24.17
2023-10-07T16:39:03.390Z,21.80
2023-10-07T16:41:32.561Z,16.45
2023-10-07T16:44:00.031Z,16.20
2023-10-07T16:46:30.411Z,18.80
2023-10-07T16:48:57.806Z,19.55
2023-10-07T16:51:25.336Z,19.55
2023-10-07T16:53:52.585Z,18.77
2023-10-07T16:56:19.823Z,20.45
2023-10-07T16:58:47.052Z,17.33
2023-10-07T17:01:14.743Z,20.45
2023-10-07T17:03:42.600Z,24.27
2023-10-07T17:06:10.048Z,18.55
2023-10-07T17:08:38.280Z,18.75
2023-10-07T17:11:05.896Z,18.55
2023-10-07T17:13:33.262Z,17.30
2023-10-07T17:16:00.974Z,16.27
2023-10-07T17:18:28.910Z,19.65
2023-10-07T17:21:00.074Z,15.10
2023-10-07T17:23:28.201Z,19.90
2023-10-07T17:25:56.027Z,18.70
2023-10-07T17:28:23.677Z,24.77
2023-10-07T17:30:51.399Z,21.27
2023-10-07T17:33:21.784Z,19.92
2023-10-07T17:35:49.949Z,21.63
2023-10-07T17:38:17.497Z,18.67
2023-10-07T17:40:47.234Z,16.70
2023-10-07T17:43:15.631Z,22.40
2023-10-07T17:45:45.850Z,25.85
2023-10-07T17:48:13.142Z,22.58
2023-10-07T17:50:41.476Z,19.58
2023-10-07T17:53:11.488Z,22.80
2023-10-07T17:55:38.743Z,13.35
2023-10-07T17:58:06.773Z,20.08
2023-10-07T18:00:34.911Z,19.85
2023-10-07T18:03:03.766Z,19.55
2023-10-07T18:05:31.912Z,25.23
2023-10-07T18:07:59.413Z,20.88
2023-10-07T18:10:27.182Z,25.10
2023-10-07T18:12:58.179Z,22.25
2023-10-07T18:15:25.353Z,30.08
2023-10-07T18:17:52.937Z,22.10
2023-10-07T18:20:20.366Z,26.73
2023-10-07T18:22:51.596Z,19.95
2023-10-07T18:25:21.839Z,24.48
2023-10-07T18:27:49.821Z,25.45
2023-10-07T18:30:19.881Z,22.65
2023-10-07T18:32:48.851Z,24.23
2023-10-07T18:35:16.673Z,23.65
2023-10-07T18:37:44.097Z,24.50
2023-10-07T18:40:11.759Z,24.88
2023-10-07T18:42:39.013Z,22.85
2023-10-07T18:45:10.420Z,20.40
2023-10-07T18:47:37.903Z,27.55
2023-10-07T18:50:08.508Z,20.58
2023-10-07T18:52:35.873Z,25.13
2023-10-07T18:55:03.330Z,25.65
2023-10-07T18:57:31.704Z,22.40
2023-10-07T18:59:59.352Z,19.80
2023-10-07T19:02:26.663Z,21.35
2023-10-07T19:04:53.848Z,22.52
2023-10-07T19:07:21.050Z,21.08
2023-10-07T19:09:48.488Z,22.73
2023-10-07T19:12:17.577Z,23.50
2023-10-07T19:14:47.960Z,20.80
2023-10-07T19:17:15.171Z,20.65
2023-10-07T19:19:42.989Z,24.15
2023-10-07T19:22:10.203Z,29.65
2023-10-07T19:24:37.388Z,27.02
2023-10-07T19:27:05.087Z,27.77
2023-10-07T19:29:32.419Z,19.40
2023-10-07T19:32:00.083Z,25.38
2023-10-07T19:34:27.423Z,23.17
2023-10-07T19:36:54.613Z,24.33
2023-10-07T19:39:39.492Z,22.63
2023-10-07T19:42:09.067Z,22.02
2023-10-07T19:44:36.540Z,21.40
2023-10-07T19:47:04.134Z,27.48
2023-10-07T19:49:31.381Z,20.48
2023-10-07T19:51:58.592Z,26.33
2023-10-07T19:54:25.911Z,29.10
2023-10-07T19:56:53.396Z,24.63
2023-10-07T19:59:21.253Z,21.73
2023-10-07T20:01:49.775Z,21.98
2023-10-07T20:04:17.160Z,31.70
2023-10-07T20:06:44.597Z,28.65
2023-10-07T20:09:12.526Z,30.15
2023-10-07T20:11:41.454Z,27.55
2023-10-07T20:14:08.787Z,24.63
2023-10-07T20:16:35.986Z,21.83
2023-10-07T20:19:06.082Z,22.35
2023-10-07T20:21:34.168Z,27.48
2023-10-07T20:24:01.587Z,24.45
2023-10-07T20:26:29.233Z,19.98
2023-10-07T20:28:56.510Z,24.27
2023-10-07T20:31:23.861Z,25.33
2023-10-07T20:33:52.708Z,23.20
2023-10-07T20:36:20.046Z,23.48
2023-10-07T20:38:47.544Z,23.35
2023-10-07T20:41:14.832Z,27.38
2023-10-07T20:43:42.121Z,26.38
2023-10-07T20:46:09.417Z,28.00
2023-10-07T20:48:40.128Z,23.83
2023-10-07T20:51:15.223Z,20.65
2023-10-07T20:53:46.289Z,28.70
2023-10-07T20:56:16.236Z,29.70
2023-10-07T20:58:43.881Z,23.13
2023-10-07T21:01:19.060Z,27.38
2023-10-07T21:03:51.397Z,28.58
2023-10-07T21:06:21.221Z,23.52
2023-10-07T21:08:51.465Z,33.80
2023-10-07T21:11:24.638Z,29.42
2023-10-07T21:13:54.578Z,28.27
2023-10-07T21:16:21.802Z,18.17
2023-10-07T21:18:49.062Z,3.63
2023-10-07T21:21:16.274Z,3.45
2023-10-07T21:23:44.842Z,5.10
2023-10-07T21:26:21.872Z,2.55
2023-10-07T21:28:53.087Z,4.30
2023-10-07T21:31:20.678Z,1.20
2023-10-07T21:33:48.083Z,3.03
2023-10-07T21:36:15.390Z,0.60
2023-10-07T21:38:44.200Z,0.35
2023-10-07T21:41:13.117Z,0.45
2023-10-07T21:43:40.524Z,0.40
2023-10-07T21:46:07.849Z,0.88
2023-10-07T21:48:36.769Z,1.48
2023-10-07T21:51:09.105Z,2.55
2023-10-07T21:53:36.862Z,4.93
2023-10-07T21:56:07.204Z,4.05
2023-10-07T21:58:34.436Z,0.40
2023-10-07T22:01:10.579Z,0.50
2023-10-07T22:03:40.156Z,1.35
2023-10-07T22:06:07.657Z,2.55
2023-10-07T22:08:34.864Z,1.65
2023-10-07T22:11:02.072Z,1.20
2023-10-07T22:13:29.760Z,2.75
2023-10-07T22:15:57.196Z,1.48
2023-10-07T22:18:27.164Z,2.22
2023-10-07T22:20:56.657Z,2.08
2023-10-07T22:23:24.724Z,2.10
2023-10-07T22:25:53.474Z,1.75
2023-10-07T22:28:24.507Z,3.45
2023-10-07T22:30:53.013Z,2.30
2023-10-07T22:33:22.972Z,3.47
2023-10-07T22:35:54.202Z,2.08
2023-10-07T22:38:22.695Z,1.83
2023-10-07T22:41:01.278Z,2.03
2023-10-07T22:43:35.910Z,2.10
2023-10-07T22:46:05.282Z,1.83
2023-10-07T22:48:36.303Z,1.48
2023-10-07T22:51:25.541Z,3.25
2023-10-07T22:54:02.354Z,1.48
2023-10-07T22:56:32.331Z,2.30
2023-10-07T22:59:03.153Z,1.40
2023-10-07T23:01:49.796Z,1.88
2023-10-07T23:04:21.555Z,0.93
2023-10-07T23:07:13.197Z,0.70
2023-10-07T23:09:49.837Z,1.00
2023-10-07T23:12:28.429Z,1.60
2023-10-07T23:15:09.141Z,1.00
2023-10-07T23:17:40.091Z,1.45
2023-10-07T23:20:28.135Z,3.33
2023-10-07T23:23:12.939Z,0.82
2023-10-07T23:25:43.354Z,1.42
2023-10-07T23:28:23.460Z,1.38
2023-10-07T23:31:09.569Z,2.88
2023-10-07T23:33:39.401Z,0.43
2023-10-07T23:36:11.006Z,0.40
2023-10-07T23:38:39.723Z,0.73
2023-10-07T23:41:07.053Z,0.43
2023-10-07T23:43:37.376Z,0.50
2023-10-07T23:46:04.774Z,0.60
2023-10-07T23:48:32.292Z,0.47
2023-10-07T23:51:00.227Z,0.52
2023-10-07T23:53:31.691Z,0.32
2023-10-07T23:56:07.306Z,0.35
2023-10-07T23:58:50.925Z,0.55
